createdAt,value
2024-04-10T00:01:51.392Z,11.35
2024-04-10T00:04:19.382Z,14.15
2024-04-10T00:06:46.882Z,18.67
2024-04-10T00:09:14.719Z,16.08
2024-04-10T00:11:42.223Z,18.77
2024-04-10T00:14:10.215Z,16.25
2024-04-10T00:16:37.703Z,16.13
2024-04-10T00:19:08.482Z,12.50
2024-04-10T00:21:36.909Z,16.42
2024-04-10T00:24:04.988Z,17.60
2024-04-10T00:26:32.588Z,13.77
2024-04-10T00:29:00.556Z,14.10
2024-04-10T00:31:28.303Z,11.95
2024-04-10T00:33:56.335Z,11.75
2024-04-10T00:36:23.794Z,14.63
2024-04-10T00:38:52.224Z,15.52
2024-04-10T00:41:19.693Z,15.30
2024-04-10T00:43:47.812Z,14.27
2024-04-10T00:46:21.074Z,11.43
2024-04-10T00:48:51.189Z,15.85
2024-04-10T00:51:20.250Z,16.48
2024-04-10T00:53:49.009Z,12.85
2024-04-10T00:58:45.382Z,12.82
2024-04-10T01:01:14.514Z,15.30
2024-04-10T01:03:42.835Z,18.13
2024-04-10T01:06:11.421Z,11.48
2024-04-10T01:08:40.629Z,17.65
2024-04-10T01:11:09.900Z,14.82
2024-04-10T01:13:38.398Z,14.88
2024-04-10T01:16:06.644Z,14.50
2024-04-10T01:18:34.576Z,13.18
2024-04-10T01:21:02.005Z,15.15
2024-04-10T01:23:29.878Z,13.68
2024-04-10T01:25:57.439Z,18.45
2024-04-10T01:28:25.253Z,13.23
2024-04-10T01:30:53.128Z,15.40
2024-04-10T01:33:21.050Z,12.32
2024-04-10T01:35:48.630Z,14.25
2024-04-10T01:38:16.417Z,10.57
2024-04-10T01:40:45.481Z,13.85
2024-04-10T01:43:13.272Z,15.45
2024-04-10T01:45:41.629Z,15.52
2024-04-10T01:48:09.762Z,16.02
2024-04-10T01:50:37.359Z,10.27
2024-04-10T01:53:05.504Z,11.40
2024-04-10T01:55:33.134Z,12.00
2024-04-10T01:58:00.964Z,17.80
2024-04-10T02:00:28.952Z,14.48
2024-04-10T02:02:56.786Z,12.20
2024-04-10T02:05:24.311Z,13.55
2024-04-10T02:07:52.204Z,15.32
2024-04-10T02:10:19.591Z,14.73
2024-04-10T02:12:47.401Z,17.30
2024-04-10T02:15:14.951Z,10.30
2024-04-10T02:17:42.958Z,14.77
2024-04-10T02:20:11.689Z,11.32
2024-04-10T02:22:43.826Z,11.73
2024-04-10T02:25:11.223Z,10.48
2024-04-10T02:27:39.129Z,12.57
2024-04-10T02:30:08.279Z,13.60
2024-04-10T02:32:36.215Z,9.68
2024-04-10T02:35:03.793Z,11.77
2024-04-10T02:37:31.584Z,16.00
2024-04-10T02:40:00.219Z,15.57
2024-04-10T02:42:28.176Z,11.10
2024-04-10T02:44:55.659Z,15.98
2024-04-10T02:47:24.038Z,15.13
2024-04-10T02:49:51.731Z,11.77
2024-04-10T02:52:19.698Z,9.93
2024-04-10T02:54:47.091Z,13.30
2024-04-10T02:57:15.299Z,13.38
2024-04-10T02:59:43.149Z,12.82
2024-04-10T03:02:11.632Z,14.05
2024-04-10T03:04:39.327Z,14.52
2024-04-10T03:07:07.252Z,14.52
2024-04-10T03:09:34.895Z,16.33
2024-04-10T03:12:02.770Z,15.05
2024-04-10T03:14:33.100Z,13.40
2024-04-10T03:17:01.158Z,15.10
2024-04-10T03:19:30.313Z,18.23
2024-04-10T03:21:58.192Z,21.63
2024-04-10T03:24:25.555Z,21.55
2024-04-10T03:26:53.310Z,15.20
2024-04-10T03:29:20.801Z,14.85
2024-04-10T03:31:48.708Z,16.67
2024-04-10T03:34:16.442Z,19.17
2024-04-10T03:36:45.179Z,20.63
2024-04-10T03:39:13.199Z,20.67
2024-04-10T03:41:41.103Z,20.63
2024-04-10T03:44:08.857Z,19.88
2024-04-10T03:46:36.687Z,23.45
2024-04-10T03:49:04.118Z,20.15
2024-04-10T03:51:31.961Z,22.10
2024-04-10T03:53:59.292Z,19.80
2024-04-10T03:56:27.030Z,20.83
2024-04-10T03:58:54.512Z,18.10
2024-04-10T04:01:22.546Z,17.15
2024-04-10T04:03:50.261Z,13.40
2024-04-10T04:06:18.105Z,8.45
2024-04-10T04:08:45.524Z,10.60
2024-04-10T04:11:13.367Z,9.48
2024-04-10T04:13:40.835Z,6.95
2024-04-10T04:16:09.373Z,9.57
2024-04-10T04:18:38.029Z,7.97
2024-04-10T04:21:06.401Z,12.25
2024-04-10T04:23:34.410Z,8.50
2024-04-10T04:26:02.335Z,8.80
2024-04-10T04:28:29.803Z,8.82
2024-04-10T04:30:58.312Z,7.07
2024-04-10T04:33:26.025Z,5.75
2024-04-10T04:35:53.850Z,7.97
2024-04-10T04:38:21.597Z,10.68
2024-04-10T04:40:49.680Z,11.10
2024-04-10T04:43:17.167Z,9.30
2024-04-10T04:45:44.919Z,9.13
2024-04-10T04:48:12.847Z,10.18
2024-04-10T04:50:44.292Z,9.43
2024-04-10T04:53:12.772Z,13.57
2024-04-10T04:55:41.787Z,6.78
2024-04-10T04:58:09.603Z,10.05
2024-04-10T05:00:37.508Z,6.90
2024-04-10T05:03:05.364Z,7.03
2024-04-10T05:05:34.906Z,8.32
2024-04-10T05:08:02.434Z,9.85
2024-04-10T05:10:30.702Z,10.07
2024-04-10T05:12:58.982Z,7.65
2024-04-10T05:15:26.782Z,9.57
2024-04-10T05:17:54.281Z,11.40
2024-04-10T05:20:22.158Z,15.45
2024-04-10T05:22:49.957Z,9.10
2024-04-10T05:25:17.734Z,7.25
2024-04-10T05:27:45.119Z,7.85
2024-04-10T05:30:14.276Z,10.88
2024-04-10T05:32:42.821Z,9.20
2024-04-10T05:35:13.097Z,5.78
2024-04-10T05:37:41.403Z,8.25
2024-04-10T05:40:14.725Z,9.50
2024-04-10T05:42:43.298Z,8.57
2024-04-10T05:45:12.695Z,10.32
2024-04-10T05:47:42.343Z,8.98
2024-04-10T05:50:11.865Z,7.90
2024-04-10T05:52:42.432Z,7.03
2024-04-10T05:55:11.111Z,6.57
2024-04-10T05:57:38.613Z,9.73
2024-04-10T06:00:08.820Z,10.85
2024-04-10T06:02:40.535Z,8.02
2024-04-10T06:05:10.240Z,9.98
2024-04-10T06:07:39.102Z,11.77
2024-04-10T06:10:07.284Z,6.25
2024-04-10T06:12:34.744Z,7.05
2024-04-10T06:15:02.697Z,6.43
2024-04-10T06:17:30.722Z,6.25
2024-04-10T06:19:58.950Z,9.15
2024-04-10T06:22:26.369Z,8.00
2024-04-10T06:24:54.186Z,6.30
2024-04-10T06:27:21.769Z,6.53
2024-04-10T06:29:49.612Z,5.90
2024-04-10T06:32:17.737Z,7.80
2024-04-10T06:34:45.762Z,6.25
2024-04-10T06:37:14.306Z,13.45
2024-04-10T06:39:42.136Z,6.90
2024-04-10T06:42:09.545Z,4.65
2024-04-10T06:44:37.630Z,4.78
2024-04-10T06:47:05.543Z,4.22
2024-04-10T06:49:33.657Z,6.88
2024-04-10T06:52:01.353Z,4.90
2024-04-10T06:54:29.156Z,5.80
2024-04-10T06:56:56.703Z,6.18
2024-04-10T06:59:24.529Z,5.63
2024-04-10T07:01:52.910Z,4.90
2024-04-10T07:04:21.612Z,4.15
2024-04-10T07:06:50.680Z,6.28
2024-04-10T07:09:18.423Z,6.93
2024-04-10T07:11:46.149Z,5.32
2024-04-10T07:14:14.714Z,6.35
2024-04-10T07:16:43.600Z,6.35
2024-04-10T07:19:11.455Z,3.50
2024-04-10T07:21:38.955Z,5.45
2024-04-10T07:24:07.528Z,4.68
2024-04-10T07:26:34.964Z,7.00
2024-04-10T07:29:05.051Z,4.07
2024-04-10T07:31:34.155Z,4.00
2024-04-10T07:34:03.357Z,7.15
2024-04-10T07:36:39.245Z,5.57
2024-04-10T07:39:09.700Z,6.95
2024-04-10T07:41:39.539Z,6.70
2024-04-10T07:44:09.957Z,7.45
2024-04-10T07:46:37.677Z,6.63
2024-04-10T07:49:07.846Z,3.00
2024-04-10T07:51:35.916Z,4.72
2024-04-10T07:54:03.640Z,4.53
2024-04-10T07:56:31.174Z,7.40
2024-04-10T07:59:00.160Z,4.28
2024-04-10T08:01:27.760Z,3.58
2024-04-10T08:03:55.924Z,6.18
2024-04-10T08:06:23.594Z,3.55
2024-04-10T08:08:51.617Z,5.00
2024-04-10T08:11:19.682Z,3.50
2024-04-10T08:13:47.722Z,5.32
2024-04-10T08:16:17.040Z,5.65
2024-04-10T08:18:46.997Z,5.50
2024-04-10T08:21:16.206Z,5.80
2024-04-10T08:23:45.912Z,3.75
2024-04-10T08:26:21.766Z,3.10
2024-04-10T08:28:54.725Z,4.50
2024-04-10T08:31:28.270Z,5.43
2024-04-10T08:33:56.342Z,4.00
2024-04-10T08:36:25.928Z,2.72
2024-04-10T08:38:54.263Z,5.90
2024-04-10T08:41:23.247Z,4.60
2024-04-10T08:43:53.280Z,4.97
2024-04-10T08:46:23.665Z,3.50
2024-04-10T08:48:56.352Z,5.03
2024-04-10T08:51:25.015Z,4.32
2024-04-10T08:53:56.437Z,6.60
2024-04-10T08:56:23.782Z,6.05
2024-04-10T08:58:51.787Z,4.97
2024-04-10T09:01:26.795Z,6.13
2024-04-10T09:03:54.734Z,6.82
2024-04-10T09:06:22.484Z,5.20
2024-04-10T09:09:07.464Z,5.10
2024-04-10T09:11:35.715Z,5.72
2024-04-10T09:14:08.517Z,4.03
2024-04-10T09:16:36.972Z,3.53
2024-04-10T09:19:19.690Z,6.15
2024-04-10T09:22:01.095Z,7.90
2024-04-10T09:24:30.740Z,6.40
2024-04-10T09:27:00.092Z,6.95
2024-04-10T09:29:31.953Z,4.95
2024-04-10T09:32:06.631Z,4.78
2024-04-10T09:34:37.352Z,5.68
2024-04-10T09:37:09.031Z,6.80
2024-04-10T09:39:37.187Z,5.55
2024-04-10T09:42:10.979Z,6.50
2024-04-10T09:44:41.830Z,5.20
2024-04-10T09:47:10.386Z,6.00
2024-04-10T09:49:44.040Z,4.63
2024-04-10T09:52:14.842Z,8.45
2024-04-10T09:54:44.698Z,4.43
2024-04-10T09:57:13.550Z,5.65
2024-04-10T09:59:45.469Z,5.35
2024-04-10T10:02:19.843Z,4.57
2024-04-10T10:04:48.667Z,8.80
2024-04-10T10:07:26.248Z,4.68
2024-04-10T10:10:07.219Z,6.03
2024-04-10T10:12:34.862Z,7.07
2024-04-10T10:15:09.948Z,5.47
2024-04-10T10:17:50.029Z,5.18
2024-04-10T10:20:25.750Z,5.32
2024-04-10T10:23:10.413Z,4.15
2024-04-10T10:25:40.790Z,4.57
2024-04-10T10:28:10.080Z,7.55
2024-04-10T10:30:39.570Z,6.65
2024-04-10T10:33:08.880Z,3.75
2024-04-10T10:35:37.134Z,6.20
2024-04-10T10:38:07.587Z,6.38
2024-04-10T10:40:36.423Z,7.07
2024-04-10T10:43:09.242Z,4.65
2024-04-10T10:45:37.716Z,3.95
2024-04-10T10:48:06.396Z,9.73
2024-04-10T10:50:35.545Z,6.82
2024-04-10T10:53:03.440Z,5.32
2024-04-10T10:55:31.339Z,3.88
2024-04-10T10:58:02.779Z,3.13
2024-04-10T11:00:32.927Z,3.60
2024-04-10T11:03:16.577Z,4.78
2024-04-10T11:05:52.374Z,5.53
2024-04-10T11:08:26.300Z,4.03
2024-04-10T11:10:54.885Z,5.38
2024-04-10T11:13:23.016Z,4.05
2024-04-10T11:15:51.397Z,5.30
2024-04-10T11:18:22.513Z,3.42
2024-04-10T11:20:52.089Z,3.58
2024-04-10T11:23:21.148Z,3.97
2024-04-10T11:25:49.156Z,4.88
2024-04-10T11:28:16.620Z,5.32
2024-04-10T11:30:44.441Z,4.75
2024-04-10T11:33:12.001Z,5.18
2024-04-10T11:35:41.149Z,4.78
2024-04-10T11:38:09.506Z,6.15
2024-04-10T11:40:37.440Z,6.15
2024-04-10T11:43:05.305Z,5.75
2024-04-10T11:45:33.478Z,5.68
2024-04-10T11:48:01.689Z,6.28
2024-04-10T11:50:30.123Z,6.47
2024-04-10T11:52:57.677Z,7.18
2024-04-10T11:55:26.986Z,5.85
2024-04-10T11:57:54.452Z,5.57
2024-04-10T12:00:22.334Z,4.18
2024-04-10T12:02:49.923Z,4.25
2024-04-10T12:05:18.119Z,7.40
2024-04-10T12:07:47.415Z,5.55
2024-04-10T12:10:15.254Z,4.55
2024-04-10T12:12:44.767Z,7.15
2024-04-10T12:15:12.584Z,6.93
2024-04-10T12:17:40.131Z,4.82
2024-04-10T12:20:10.893Z,4.72
2024-04-10T12:22:38.628Z,5.45
2024-04-10T12:25:06.571Z,7.00
2024-04-10T12:27:33.960Z,4.28
2024-04-10T12:30:02.012Z,5.93
2024-04-10T12:32:29.894Z,5.53
2024-04-10T12:35:20.990Z,4.60
2024-04-10T12:38:07.508Z,5.68
2024-04-10T12:40:37.470Z,4.38
2024-04-10T12:43:05.365Z,4.95
2024-04-10T12:45:33.805Z,5.15
2024-04-10T12:48:01.784Z,5.03
2024-04-10T12:50:29.884Z,4.20
2024-04-10T12:52:57.297Z,6.82
2024-04-10T12:55:25.101Z,6.72
2024-04-10T12:57:52.500Z,11.55
2024-04-10T13:00:20.422Z,5.78
2024-04-10T13:02:48.988Z,7.22
2024-04-10T13:05:17.189Z,4.50
2024-04-10T13:07:44.734Z,4.90
2024-04-10T13:10:13.356Z,5.05
2024-04-10T13:12:40.836Z,6.07
2024-04-10T13:15:08.814Z,6.70
2024-04-10T13:17:36.382Z,4.72
2024-04-10T13:20:04.688Z,5.10
2024-04-10T13:22:32.662Z,5.40
2024-04-10T13:25:00.444Z,6.07
2024-04-10T13:27:28.126Z,6.43
2024-04-10T13:29:56.202Z,3.97
2024-04-10T13:32:24.157Z,5.15
2024-04-10T13:34:52.764Z,6.93
2024-04-10T13:37:30.204Z,3.88
2024-04-10T13:40:02.261Z,4.18
2024-04-10T13:42:29.695Z,3.90
2024-04-10T13:44:57.718Z,4.47
2024-04-10T13:47:25.363Z,4.20
2024-04-10T13:49:53.369Z,3.40
2024-04-10T13:52:20.780Z,7.55
2024-04-10T13:54:48.806Z,3.80
2024-04-10T13:57:18.452Z,6.30
2024-04-10T14:32:43.930Z,5.63
2024-04-10T14:35:11.905Z,3.50
2024-04-10T14:37:41.956Z,3.13
2024-04-10T14:42:37.635Z,3.58
2024-04-10T14:45:11.917Z,3.10
2024-04-10T14:47:39.721Z,3.50
2024-04-10T14:50:08.544Z,5.82
2024-04-10T14:52:37.802Z,4.85
2024-04-10T14:55:06.855Z,3.17
2024-04-10T14:57:36.607Z,3.45
2024-04-10T15:00:06.939Z,5.55
2024-04-10T15:02:34.571Z,3.70
2024-04-10T15:05:02.886Z,4.40
2024-04-10T15:07:30.400Z,5.22
2024-04-10T15:09:58.285Z,6.65
2024-04-10T15:12:26.017Z,3.47
2024-04-10T15:14:54.092Z,5.13
2024-04-10T15:17:22.078Z,6.25
2024-04-10T15:19:49.905Z,6.20
2024-04-10T15:22:17.352Z,5.72
2024-04-10T15:24:45.241Z,4.57
2024-04-10T15:27:12.780Z,5.72
2024-04-10T15:29:40.721Z,4.93
2024-04-10T15:32:08.244Z,4.65
2024-04-10T15:34:36.374Z,6.97
2024-04-10T15:37:03.984Z,5.22
2024-04-10T15:39:31.775Z,4.90
2024-04-10T15:42:00.075Z,6.68
2024-04-10T15:44:28.229Z,4.00
2024-04-10T15:46:55.670Z,5.13
2024-04-10T15:49:23.525Z,7.47
2024-04-10T15:51:51.009Z,7.10
2024-04-10T15:54:18.815Z,5.82
2024-04-10T15:56:47.253Z,7.78
2024-04-10T15:59:15.341Z,4.82
2024-04-10T16:01:42.766Z,6.90
2024-04-10T16:04:10.576Z,4.68
2024-04-10T16:06:38.001Z,5.63
2024-04-10T16:09:09.906Z,5.13
2024-04-10T16:11:41.540Z,5.18
2024-04-10T16:14:09.818Z,4.85
2024-04-10T16:16:37.273Z,4.32
2024-04-10T16:19:05.226Z,4.78
2024-04-10T16:21:32.715Z,5.88
2024-04-10T16:24:00.571Z,3.22
2024-04-10T16:26:31.692Z,4.55
2024-04-10T16:29:01.208Z,5.15
2024-04-10T16:31:29.730Z,7.20
2024-04-10T16:33:58.929Z,5.57
2024-04-10T16:36:26.999Z,5.10
2024-04-10T16:38:54.864Z,5.25
2024-04-10T16:41:22.613Z,7.00
2024-04-10T16:43:50.764Z,6.72
2024-04-10T16:46:18.323Z,6.53
2024-04-10T16:48:46.567Z,4.50
2024-04-10T16:51:14.170Z,4.53
2024-04-10T16:53:42.090Z,4.45
2024-04-10T16:56:17.406Z,4.68
2024-04-10T16:58:45.667Z,6.63
2024-04-10T17:01:14.966Z,4.20
2024-04-10T17:03:44.341Z,4.93
2024-04-10T17:06:12.264Z,8.38
2024-04-10T17:08:40.495Z,5.22
2024-04-10T17:11:15.061Z,4.05
2024-04-10T17:13:43.015Z,4.75
2024-04-10T17:16:11.716Z,5.90
2024-04-10T17:18:59.606Z,4.95
2024-04-10T17:22:06.821Z,6.05
2024-04-10T17:24:34.643Z,6.60
2024-04-10T17:27:02.345Z,5.00
2024-04-10T17:29:30.780Z,5.90
2024-04-10T17:31:58.235Z,5.45
2024-04-10T17:34:26.236Z,6.13
2024-04-10T17:36:56.926Z,8.32
2024-04-10T17:39:27.893Z,6.13
2024-04-10T17:41:55.457Z,6.38
2024-04-10T17:44:23.547Z,6.15
2024-04-10T17:46:52.860Z,8.88
2024-04-10T17:49:20.950Z,6.32
2024-04-10T17:51:48.843Z,6.70
2024-04-10T17:54:16.635Z,5.97
2024-04-10T17:56:44.031Z,6.10
2024-04-10T17:59:11.772Z,9.02
2024-04-10T18:01:40.399Z,8.15
2024-04-10T18:04:08.402Z,8.30
2024-04-10T18:06:39.315Z,12.13
2024-04-10T18:09:07.274Z,8.73
2024-04-10T18:11:34.815Z,12.88
2024-04-10T18:14:02.616Z,14.35
2024-04-10T18:16:30.005Z,9.05
2024-04-10T18:18:58.556Z,7.65
2024-04-10T18:21:26.392Z,8.45
2024-04-10T18:23:54.726Z,8.82
2024-04-10T18:26:22.298Z,5.93
2024-04-10T18:28:50.148Z,9.27
2024-04-10T18:31:17.567Z,6.78
2024-04-10T18:33:45.765Z,5.13
2024-04-10T18:36:13.319Z,4.57
2024-04-10T18:38:42.147Z,5.30
2024-04-10T18:41:16.791Z,4.63
2024-04-10T18:43:44.655Z,7.10
2024-04-10T18:46:12.113Z,4.60
2024-04-10T18:48:40.469Z,9.88
2024-04-10T18:51:17.455Z,7.72
2024-04-10T18:53:47.442Z,10.57
2024-04-10T18:56:15.076Z,6.38
2024-04-10T18:58:46.685Z,6.90
2024-04-10T19:01:15.035Z,6.95
2024-04-10T19:03:44.276Z,8.88
2024-04-10T19:06:14.785Z,7.15
2024-04-10T19:08:44.089Z,9.63
2024-04-10T19:11:13.422Z,8.32
2024-04-10T19:13:42.234Z,9.18
2024-04-10T19:16:09.919Z,7.68
2024-04-10T19:18:37.940Z,6.78
2024-04-10T19:21:06.252Z,8.85
2024-04-10T19:23:34.978Z,8.93
2024-04-10T19:26:03.349Z,7.72
2024-04-10T19:28:35.705Z,7.88
2024-04-10T19:31:04.534Z,5.95
2024-04-10T19:33:35.122Z,7.07
2024-04-10T19:36:07.447Z,8.55
2024-04-10T19:38:35.453Z,10.85
2024-04-10T19:41:06.562Z,8.43
2024-04-10T19:43:35.717Z,7.32
2024-04-10T19:46:08.313Z,10.20
2024-04-10T19:48:36.516Z,9.13
2024-04-10T19:51:06.204Z,10.32
2024-04-10T19:53:35.244Z,6.95
2024-04-10T19:56:10.984Z,8.85
2024-04-10T19:58:41.305Z,10.63
2024-04-10T20:01:11.339Z,8.93
2024-04-10T20:03:43.847Z,10.43
2024-04-10T20:06:12.769Z,8.77
2024-04-10T20:08:41.588Z,10.00
2024-04-10T20:11:10.716Z,9.57
2024-04-10T20:13:39.390Z,10.35
2024-04-10T20:16:11.700Z,9.80
2024-04-10T20:18:41.819Z,11.05
2024-04-10T20:21:12.107Z,10.52
2024-04-10T20:23:40.099Z,10.55
2024-04-10T20:26:08.341Z,9.38
2024-04-10T20:28:36.570Z,11.20
2024-04-10T20:31:05.710Z,10.40
2024-04-10T20:33:34.463Z,9.05
2024-04-10T20:36:02.851Z,9.13
2024-04-10T20:38:30.704Z,9.88
2024-04-10T20:41:06.125Z,10.48
2024-04-10T20:43:35.056Z,9.48
2024-04-10T20:46:06.702Z,12.43
2024-04-10T20:48:35.823Z,11.07
2024-04-10T20:51:21.465Z,11.70
2024-04-10T20:53:50.138Z,11.63
2024-04-10T20:56:20.288Z,10.70
2024-04-10T20:58:48.899Z,12.30
2024-04-10T21:01:18.170Z,15.30
2024-04-10T21:03:47.960Z,10.80
2024-04-10T21:06:17.655Z,10.50
2024-04-10T21:09:06.724Z,11.25
2024-04-10T21:11:55.478Z,10.48
2024-04-10T21:14:43.069Z,11.70
2024-04-10T21:17:29.444Z,9.27
2024-04-10T21:20:16.137Z,9.68
2024-04-10T21:23:02.456Z,8.80
2024-04-10T21:25:50.813Z,11.52
2024-04-10T21:28:37.576Z,9.50
2024-04-10T21:31:26.206Z,11.65
2024-04-10T21:34:13.072Z,11.77
2024-04-10T21:36:59.828Z,13.35
2024-04-10T21:39:46.341Z,12.32
2024-04-10T21:42:33.012Z,10.40
2024-04-10T21:45:19.396Z,9.30
2024-04-10T21:48:06.227Z,10.52
2024-04-10T21:50:52.456Z,9.15
2024-04-10T21:53:38.974Z,11.98
2024-04-10T21:56:27.599Z,11.02
2024-04-10T21:59:15.649Z,11.07
2024-04-10T22:02:06.719Z,8.05
2024-04-10T22:04:58.013Z,11.50
2024-04-10T22:07:46.240Z,10.05
2024-04-10T22:10:14.344Z,9.93
2024-04-10T22:12:42.034Z,12.93
2024-04-10T22:15:11.931Z,13.50
2024-04-10T22:18:00.409Z,9.25
2024-04-10T22:20:48.876Z,12.18
2024-04-10T22:23:35.180Z,9.98
2024-04-10T22:26:02.988Z,10.75
2024-04-10T22:28:32.059Z,10.70
2024-04-10T22:30:59.845Z,8.73
2024-04-10T22:33:27.520Z,9.02
2024-04-10T22:36:00.000Z,11.40
2024-04-10T22:38:28.146Z,9.15
2024-04-10T22:40:56.477Z,12.95
2024-04-10T22:43:24.363Z,11.93
2024-04-10T22:45:52.495Z,9.68
2024-04-10T22:48:20.059Z,13.15
2024-04-10T22:50:48.205Z,10.20
2024-04-10T22:53:16.028Z,9.20
2024-04-10T22:55:43.757Z,9.63
2024-04-10T22:58:11.111Z,14.82
2024-04-10T23:00:39.233Z,17.55
2024-04-10T23:03:07.409Z,17.70
2024-04-10T23:08:27.571Z,11.65
2024-04-10T23:10:53.674Z,11.98
2024-04-10T23:13:21.090Z,11.73
2024-04-10T23:15:48.882Z,10.98
2024-04-10T23:18:25.192Z,11.38
2024-04-10T23:21:03.909Z,11.50
2024-04-10T23:23:31.355Z,14.07
2024-04-10T23:25:59.121Z,12.82
2024-04-10T23:28:26.579Z,9.38
2024-04-10T23:30:55.590Z,8.90
2024-04-10T23:33:23.317Z,8.88
2024-04-10T23:35:51.394Z,10.18
2024-04-10T23:38:19.089Z,11.60
2024-04-10T23:40:46.844Z,9.85
2024-04-10T23:43:14.222Z,9.70
2024-04-10T23:45:43.132Z,12.45
2024-04-10T23:48:11.555Z,10.70
2024-04-10T23:50:39.428Z,12.40
2024-04-10T23:53:06.844Z,12.52
2024-04-10T23:55:34.679Z,15.68
2024-04-10T23:58:02.062Z,9.43
